createdAt,value
2017-03-29T00:00:01.524Z,56.46
2017-03-29T00:00:05.975Z,56.55
2017-03-29T00:00:10.308Z,56.36
2017-03-29T00:00:14.735Z,56.46
2017-03-29T00:00:18.928Z,56.46
2017-03-29T00:00:23.241Z,56.46
2017-03-29T00:00:27.670Z,56.26
2017-03-29T00:00:31.994Z,56.46
2017-03-29T00:00:36.423Z,56.46
2017-03-29T00:00:40.740Z,56.65
2017-03-29T00:00:45.201Z,56.55
2017-03-29T00:00:49.628Z,56.26
2017-03-29T00:00:54.054Z,56.26
2017-03-29T00:00:58.483Z,56.46
2017-03-29T00:01:03.277Z,56.46
2017-03-29T00:01:07.705Z,56.55
2017-03-29T00:01:12.015Z,56.55
2017-03-29T00:01:16.444Z,56.26
2017-03-29T00:01:20.875Z,56.46
2017-03-29T00:01:25.185Z,56.55
2017-03-29T00:01:29.496Z,56.36
2017-03-29T00:01:33.801Z,56.55
2017-03-29T00:01:38.232Z,56.46
2017-03-29T00:01:42.657Z,56.26
2017-03-29T00:01:47.086Z,56.46
2017-03-29T00:01:51.526Z,56.17
2017-03-29T00:01:55.837Z,56.26
2017-03-29T00:02:00.264Z,56.07
2017-03-29T00:02:04.573Z,56.26
2017-03-29T00:02:08.769Z,56.07
2017-03-29T00:02:13.078Z,56.07
2017-03-29T00:02:17.501Z,56.36
2017-03-29T00:02:21.818Z,56.36
2017-03-29T00:02:26.155Z,56.07
2017-03-29T00:02:30.582Z,56.26
2017-03-29T00:02:34.889Z,56.36
2017-03-29T00:02:39.320Z,56.36
2017-03-29T00:02:43.774Z,56.46
2017-03-29T00:02:48.198Z,56.36
2017-03-29T00:02:52.625Z,56.46
2017-03-29T00:02:57.051Z,56.36
2017-03-29T00:03:01.779Z,56.26
2017-03-29T00:03:06.224Z,56.07
2017-03-29T00:03:10.416Z,56.46
2017-03-29T00:03:14.842Z,56.26
2017-03-29T00:03:19.154Z,56.55
2017-03-29T00:03:23.582Z,56.17
2017-03-29T00:03:28.008Z,56.36
2017-03-29T00:03:32.438Z,56.36
2017-03-29T00:03:36.780Z,56.65
2017-03-29T00:03:41.205Z,56.65
2017-03-29T00:03:45.633Z,56.65
2017-03-29T00:03:50.060Z,56.55
2017-03-29T00:03:54.488Z,56.65
2017-03-29T00:03:58.910Z,56.65
2017-03-29T00:04:03.344Z,56.46
2017-03-29T00:04:07.655Z,56.74
2017-03-29T00:04:12.081Z,56.74
2017-03-29T00:04:16.539Z,56.74
2017-03-29T00:04:20.959Z,56.93
2017-03-29T00:04:25.384Z,56.74
2017-03-29T00:04:29.694Z,56.74
2017-03-29T00:04:34.003Z,56.74
2017-03-29T00:04:38.425Z,56.65
2017-03-29T00:04:42.730Z,56.74
2017-03-29T00:04:47.044Z,57.03
2017-03-29T00:04:51.472Z,56.74
2017-03-29T00:04:55.897Z,56.74
2017-03-29T00:05:00.325Z,56.65
2017-03-29T00:05:04.639Z,56.74
2017-03-29T00:05:08.982Z,56.55
2017-03-29T00:05:13.407Z,56.84
2017-03-29T00:05:17.492Z,56.84
2017-03-29T00:05:21.812Z,56.93
2017-03-29T00:05:26.126Z,56.74
2017-03-29T00:05:30.207Z,56.74
2017-03-29T00:05:34.639Z,56.74
2017-03-29T00:05:38.965Z,56.74
2017-03-29T00:05:43.426Z,56.84
2017-03-29T00:05:47.746Z,57.22
2017-03-29T00:05:52.057Z,57.03
2017-03-29T00:05:56.483Z,57.03
2017-03-29T00:06:00.811Z,57.22
2017-03-29T00:06:05.132Z,57.22
2017-03-29T00:06:09.565Z,57.03
2017-03-29T00:06:13.883Z,57.12
2017-03-29T00:06:18.198Z,57.22
2017-03-29T00:06:22.629Z,57.03
2017-03-29T00:06:27.053Z,57.03
2017-03-29T00:06:31.240Z,56.65
2017-03-29T00:06:35.671Z,56.93
2017-03-29T00:06:40.095Z,56.84
2017-03-29T00:06:44.529Z,56.93
2017-03-29T00:06:48.843Z,57.03
2017-03-29T00:06:53.157Z,56.93
2017-03-29T00:06:57.584Z,57.03
2017-03-29T00:07:01.550Z,56.93
2017-03-29T00:07:05.875Z,57.12
2017-03-29T00:07:10.200Z,56.93
2017-03-29T00:07:14.630Z,56.93
2017-03-29T00:07:19.061Z,56.93
2017-03-29T00:07:23.284Z,57.12
2017-03-29T00:07:27.707Z,56.84
2017-03-29T00:07:32.137Z,56.93
2017-03-29T00:07:36.452Z,57.03
2017-03-29T00:07:40.773Z,57.22
2017-03-29T00:07:45.206Z,57.03
2017-03-29T00:07:49.529Z,57.22
2017-03-29T00:07:53.986Z,56.93
2017-03-29T00:07:58.411Z,56.93
2017-03-29T00:08:02.730Z,57.03
2017-03-29T00:08:07.198Z,56.93
2017-03-29T00:08:11.511Z,57.12
2017-03-29T00:08:15.971Z,56.93
2017-03-29T00:08:20.280Z,56.93
2017-03-29T00:08:24.598Z,56.93
2017-03-29T00:08:29.057Z,57.22
2017-03-29T00:08:33.376Z,56.84
2017-03-29T00:08:37.681Z,57.03
2017-03-29T00:08:41.868Z,56.93
2017-03-29T00:08:46.306Z,56.84
2017-03-29T00:08:50.383Z,57.22
2017-03-29T00:08:54.815Z,57.03
2017-03-29T00:08:59.124Z,57.03
2017-03-29T00:09:03.842Z,57.03
2017-03-29T00:09:08.155Z,57.22
2017-03-29T00:09:12.463Z,57.31
2017-03-29T00:09:16.907Z,56.84
2017-03-29T00:09:21.344Z,56.93
2017-03-29T00:09:25.783Z,57.12
2017-03-29T00:09:30.122Z,56.84
2017-03-29T00:09:34.437Z,56.93
2017-03-29T00:09:38.632Z,56.84
2017-03-29T00:09:43.065Z,57.03
2017-03-29T00:09:47.416Z,56.84
2017-03-29T00:09:51.733Z,56.93
2017-03-29T00:09:56.159Z,57.12
2017-03-29T00:10:00.602Z,57.03
2017-03-29T00:10:04.917Z,56.93
2017-03-29T00:10:09.344Z,56.93
2017-03-29T00:10:13.776Z,56.93
2017-03-29T00:10:18.086Z,56.93
2017-03-29T00:10:22.400Z,56.93
2017-03-29T00:10:26.601Z,56.84
2017-03-29T00:10:31.038Z,57.12
2017-03-29T00:10:35.462Z,56.84
2017-03-29T00:10:39.652Z,57.12
2017-03-29T00:10:44.083Z,57.03
2017-03-29T00:10:48.394Z,56.84
2017-03-29T00:10:52.826Z,57.03
2017-03-29T00:10:57.258Z,56.93
2017-03-29T00:11:01.571Z,56.93
2017-03-29T00:11:06.255Z,56.93
2017-03-29T00:11:10.725Z,57.03
2017-03-29T00:11:15.151Z,56.84
2017-03-29T00:11:19.581Z,56.93
2017-03-29T00:11:24.013Z,57.03
2017-03-29T00:11:28.322Z,56.84
2017-03-29T00:11:32.762Z,57.03
2017-03-29T00:11:37.188Z,57.03
2017-03-29T00:11:41.525Z,57.03
2017-03-29T00:11:45.950Z,57.12
2017-03-29T00:11:50.385Z,57.03
2017-03-29T00:11:54.816Z,56.84
2017-03-29T00:11:59.249Z,57.03
2017-03-29T00:12:03.557Z,57.12
2017-03-29T00:12:07.634Z,56.84
2017-03-29T00:12:12.059Z,56.93
2017-03-29T00:12:16.484Z,57.12
2017-03-29T00:12:20.801Z,56.84
2017-03-29T00:12:24.872Z,56.74
2017-03-29T00:12:29.300Z,57.03
2017-03-29T00:12:33.728Z,56.84
2017-03-29T00:12:38.156Z,56.84
2017-03-29T00:12:42.576Z,57.12
2017-03-29T00:12:47.002Z,56.84
2017-03-29T00:12:51.425Z,56.93
2017-03-29T00:12:55.846Z,57.03
2017-03-29T00:13:00.267Z,56.84
2017-03-29T00:13:04.942Z,56.84
2017-03-29T00:13:09.138Z,56.93
2017-03-29T00:13:13.336Z,56.93
2017-03-29T00:13:17.761Z,56.93
2017-03-29T00:13:22.186Z,57.03
2017-03-29T00:13:26.615Z,57.31
2017-03-29T00:13:31.041Z,56.93
2017-03-29T00:13:35.472Z,56.84
2017-03-29T00:13:39.896Z,56.93
2017-03-29T00:13:44.319Z,57.22
2017-03-29T00:13:48.631Z,57.31
2017-03-29T00:13:53.060Z,57.03
2017-03-29T00:13:57.487Z,56.84
2017-03-29T00:14:01.915Z,56.93
2017-03-29T00:14:06.371Z,57.22
2017-03-29T00:14:10.675Z,57.03
2017-03-29T00:14:14.979Z,57.03
2017-03-29T00:14:19.408Z,57.03
2017-03-29T00:14:23.717Z,57.31
2017-03-29T00:14:28.022Z,57.03
2017-03-29T00:14:32.335Z,57.03
2017-03-29T00:14:36.655Z,57.03
2017-03-29T00:14:40.977Z,56.84
2017-03-29T00:14:45.291Z,56.84
2017-03-29T00:14:49.722Z,57.03
2017-03-29T00:14:54.174Z,57.03
2017-03-29T00:14:58.609Z,57.03
2017-03-29T00:15:03.292Z,57.31
2017-03-29T00:15:07.606Z,57.12
2017-03-29T00:15:12.046Z,57.31
2017-03-29T00:15:16.372Z,57.12
2017-03-29T00:15:20.809Z,57.12
2017-03-29T00:15:25.126Z,57.03
2017-03-29T00:15:29.468Z,57.12
2017-03-29T00:15:33.891Z,57.03
2017-03-29T00:15:38.317Z,57.03
2017-03-29T00:15:42.511Z,57.03
2017-03-29T00:15:46.830Z,57.12
2017-03-29T00:15:51.255Z,57.12
2017-03-29T00:15:55.576Z,57.03
2017-03-29T00:16:00.005Z,57.03
2017-03-29T00:16:04.430Z,57.03
2017-03-29T00:16:08.498Z,57.12
2017-03-29T00:16:12.921Z,57.12
2017-03-29T00:16:17.240Z,57.41
2017-03-29T00:16:21.688Z,57.31
2017-03-29T00:16:26.005Z,57.22
2017-03-29T00:16:30.329Z,57.22
2017-03-29T00:16:34.526Z,57.31
2017-03-29T00:16:38.841Z,57.22
2017-03-29T00:16:43.026Z,57.22
2017-03-29T00:16:47.218Z,57.41
2017-03-29T00:16:51.645Z,57.22
2017-03-29T00:16:56.097Z,57.22
2017-03-29T00:17:00.404Z,57.22
2017-03-29T00:17:04.880Z,57.22
2017-03-29T00:17:09.072Z,57.22
2017-03-29T00:17:13.502Z,57.22
2017-03-29T00:17:17.809Z,57.31
2017-03-29T00:17:22.231Z,57.31
2017-03-29T00:17:26.655Z,57.5
2017-03-29T00:17:30.962Z,57.31
2017-03-29T00:17:35.385Z,57.41
2017-03-29T00:17:39.689Z,57.03
2017-03-29T00:17:44.118Z,57.31
2017-03-29T00:17:48.549Z,57.22
2017-03-29T00:17:52.973Z,57.41
2017-03-29T00:17:57.400Z,57.12
2017-03-29T00:18:01.829Z,57.31
2017-03-29T00:18:06.354Z,57.22
2017-03-29T00:18:10.540Z,57.12
2017-03-29T00:18:14.853Z,57.22
2017-03-29T00:18:19.283Z,57.22
2017-03-29T00:18:23.705Z,57.22
2017-03-29T00:18:28.133Z,57.22
2017-03-29T00:18:32.438Z,57.22
2017-03-29T00:18:36.746Z,57.31
2017-03-29T00:18:41.169Z,57.31
2017-03-29T00:18:45.507Z,57.22
2017-03-29T00:18:49.929Z,57.5
2017-03-29T00:18:54.353Z,57.22
2017-03-29T00:18:58.776Z,57.22
2017-03-29T00:19:03.559Z,57.22
2017-03-29T00:19:07.981Z,57.12
2017-03-29T00:19:12.403Z,57.22
2017-03-29T00:19:16.830Z,57.41
2017-03-29T00:19:21.134Z,58.07
2017-03-29T00:19:25.448Z,58.17
2017-03-29T00:19:29.639Z,57.41
2017-03-29T00:19:34.074Z,57.41
2017-03-29T00:19:38.503Z,57.89
2017-03-29T00:19:42.843Z,57.22
2017-03-29T00:19:47.150Z,57.89
2017-03-29T00:19:51.584Z,57.98
2017-03-29T00:19:56.009Z,57.98
2017-03-29T00:20:00.320Z,57.7
2017-03-29T00:20:04.781Z,58.07
2017-03-29T00:20:09.093Z,57.98
2017-03-29T00:20:13.307Z,57.98
2017-03-29T00:20:17.740Z,57.89
2017-03-29T00:20:22.055Z,57.98
2017-03-29T00:20:26.371Z,57.89
2017-03-29T00:20:30.794Z,57.6
2017-03-29T00:20:35.223Z,57.7
2017-03-29T00:20:39.647Z,57.6
2017-03-29T00:20:44.083Z,57.6
2017-03-29T00:20:48.512Z,57.79
2017-03-29T00:20:52.942Z,57.7
2017-03-29T00:20:57.380Z,57.6
2017-03-29T00:21:01.825Z,57.6
2017-03-29T00:21:06.258Z,57.79
2017-03-29T00:21:10.688Z,57.79
2017-03-29T00:21:15.009Z,57.7
2017-03-29T00:21:18.971Z,57.79
2017-03-29T00:21:23.285Z,57.7
2017-03-29T00:21:27.594Z,57.79
2017-03-29T00:21:32.025Z,57.89
2017-03-29T00:21:36.335Z,57.89
2017-03-29T00:21:40.645Z,57.7
2017-03-29T00:21:45.086Z,57.79
2017-03-29T00:21:49.524Z,57.89
2017-03-29T00:21:53.949Z,57.79
2017-03-29T00:21:58.253Z,57.89
2017-03-29T00:22:02.795Z,57.79
2017-03-29T00:22:07.104Z,57.7
2017-03-29T00:22:11.411Z,57.6
2017-03-29T00:22:15.733Z,57.7
2017-03-29T00:22:19.925Z,57.7
2017-03-29T00:22:24.354Z,57.7
2017-03-29T00:22:28.667Z,57.79
2017-03-29T00:22:33.092Z,57.79
2017-03-29T00:22:37.520Z,57.7
2017-03-29T00:22:41.949Z,57.79
2017-03-29T00:22:46.368Z,57.6
2017-03-29T00:22:50.797Z,57.7
2017-03-29T00:22:55.237Z,57.79
2017-03-29T00:22:59.660Z,57.6
2017-03-29T00:23:04.392Z,57.6
2017-03-29T00:23:08.819Z,57.6
2017-03-29T00:23:13.131Z,57.7
2017-03-29T00:23:17.557Z,57.98
2017-03-29T00:23:21.983Z,57.6
2017-03-29T00:23:26.406Z,57.7
2017-03-29T00:23:30.710Z,57.79
2017-03-29T00:23:35.014Z,57.6
2017-03-29T00:23:39.438Z,57.79
2017-03-29T00:23:43.872Z,57.7
2017-03-29T00:23:48.175Z,57.7
2017-03-29T00:23:52.602Z,57.7
2017-03-29T00:23:57.034Z,57.7
2017-03-29T00:24:01.461Z,57.89
2017-03-29T00:24:06.071Z,57.7
2017-03-29T00:24:10.455Z,57.6
2017-03-29T00:24:14.889Z,57.79
2017-03-29T00:24:19.311Z,57.79
2017-03-29T00:24:23.734Z,57.7
2017-03-29T00:24:28.164Z,57.6
2017-03-29T00:24:32.593Z,57.7
2017-03-29T00:24:36.902Z,57.7
2017-03-29T00:24:41.207Z,57.79
2017-03-29T00:24:45.650Z,57.6
2017-03-29T00:24:50.080Z,57.7
2017-03-29T00:24:54.393Z,57.89
2017-03-29T00:24:58.825Z,57.89
2017-03-29T00:25:03.404Z,57.79
2017-03-29T00:25:07.837Z,57.7
2017-03-29T00:25:12.262Z,57.79
2017-03-29T00:25:16.691Z,57.79
2017-03-29T00:25:20.887Z,57.79
2017-03-29T00:25:25.318Z,57.79
2017-03-29T00:25:29.753Z,57.79
2017-03-29T00:25:34.174Z,57.79
2017-03-29T00:25:38.609Z,57.7
2017-03-29T00:25:42.950Z,57.79
2017-03-29T00:25:47.376Z,57.79
2017-03-29T00:25:51.812Z,57.79
2017-03-29T00:25:55.922Z,57.89
2017-03-29T00:26:00.233Z,57.89
2017-03-29T00:26:04.819Z,58.17
2017-03-29T00:26:09.137Z,57.98
2017-03-29T00:26:13.565Z,57.79
2017-03-29T00:26:17.995Z,58.17
2017-03-29T00:26:22.311Z,58.36
2017-03-29T00:26:26.623Z,57.98
2017-03-29T00:26:30.818Z,58.07
2017-03-29T00:26:35.128Z,58.26
2017-03-29T00:26:39.438Z,58.46
2017-03-29T00:26:43.865Z,58.17
2017-03-29T00:26:48.291Z,58.46
2017-03-29T00:26:52.595Z,58.26
2017-03-29T00:26:57.024Z,58.36
2017-03-29T00:27:01.463Z,57.98
2017-03-29T00:27:05.780Z,57.98
2017-03-29T00:27:10.209Z,58.26
2017-03-29T00:27:14.643Z,58.26
2017-03-29T00:27:19.065Z,58.17
2017-03-29T00:27:23.492Z,58.36
2017-03-29T00:27:27.920Z,58.26
2017-03-29T00:27:32.115Z,58.36
2017-03-29T00:27:36.542Z,57.89
2017-03-29T00:27:40.855Z,57.98
2017-03-29T00:27:45.054Z,58.17
2017-03-29T00:27:49.249Z,58.07
2017-03-29T00:27:53.673Z,58.46
2017-03-29T00:27:58.091Z,58.07
2017-03-29T00:28:02.523Z,58.17
2017-03-29T00:28:06.858Z,58.07
2017-03-29T00:28:11.280Z,57.98
2017-03-29T00:28:15.709Z,58.07
2017-03-29T00:28:20.021Z,58.17
2017-03-29T00:28:24.450Z,57.98
2017-03-29T00:28:28.877Z,58.07
2017-03-29T00:28:33.301Z,58.26
2017-03-29T00:28:37.722Z,58.07
2017-03-29T00:28:42.035Z,57.98
2017-03-29T00:28:46.338Z,58.26
2017-03-29T00:28:50.763Z,58.07
2017-03-29T00:28:55.193Z,58.17
2017-03-29T00:28:59.619Z,58.17
2017-03-29T00:29:04.041Z,58.26
2017-03-29T00:29:08.460Z,58.07
2017-03-29T00:29:12.897Z,58.07
2017-03-29T00:29:17.323Z,58.17
2017-03-29T00:29:21.627Z,58.17
2017-03-29T00:29:26.060Z,57.89
2017-03-29T00:29:30.370Z,58.17
2017-03-29T00:29:34.791Z,58.36
2017-03-29T00:29:39.212Z,58.17
2017-03-29T00:29:43.636Z,58.17
2017-03-29T00:29:48.068Z,57.89
2017-03-29T00:29:52.495Z,58.36
2017-03-29T00:29:56.915Z,58.07
2017-03-29T00:30:01.220Z,58.07
2017-03-29T00:30:05.532Z,58.36
2017-03-29T00:30:09.954Z,57.89
2017-03-29T00:30:14.377Z,58.07
2017-03-29T00:30:18.807Z,58.07
2017-03-29T00:30:23.144Z,58.26
2017-03-29T00:30:27.576Z,58.07
2017-03-29T00:30:31.889Z,58.07
2017-03-29T00:30:36.209Z,58.07
2017-03-29T00:30:40.644Z,58.07
2017-03-29T00:30:45.068Z,58.46
2017-03-29T00:30:49.497Z,58.07
2017-03-29T00:30:53.925Z,57.89
2017-03-29T00:30:58.347Z,57.89
2017-03-29T00:31:02.857Z,58.07
2017-03-29T00:31:07.279Z,57.98
2017-03-29T00:31:11.711Z,58.07
2017-03-29T00:31:15.909Z,58.07
2017-03-29T00:31:20.336Z,58.17
2017-03-29T00:31:24.764Z,57.89
2017-03-29T00:31:29.192Z,58.26
2017-03-29T00:31:33.503Z,58.17
2017-03-29T00:31:37.927Z,58.17
2017-03-29T00:31:42.398Z,58.36
2017-03-29T00:31:46.834Z,58.17
2017-03-29T00:31:51.265Z,58.17
2017-03-29T00:31:55.689Z,58.17
2017-03-29T00:31:59.883Z,58.17
2017-03-29T00:32:04.123Z,58.26
2017-03-29T00:32:08.434Z,58.07
2017-03-29T00:32:12.862Z,58.17
2017-03-29T00:32:17.292Z,58.07
2017-03-29T00:32:21.723Z,58.07
2017-03-29T00:32:26.154Z,58.07
2017-03-29T00:32:30.596Z,58.26
2017-03-29T00:32:35.019Z,58.17
2017-03-29T00:32:39.450Z,58.17
2017-03-29T00:32:43.876Z,58.17
2017-03-29T00:32:48.187Z,58.07
2017-03-29T00:32:52.622Z,57.98
2017-03-29T00:32:57.045Z,58.07
2017-03-29T00:33:01.349Z,58.07
2017-03-29T00:33:05.811Z,57.98
2017-03-29T00:33:10.236Z,57.89
2017-03-29T00:33:14.663Z,58.07
2017-03-29T00:33:19.088Z,58.07
2017-03-29T00:33:23.512Z,57.98
2017-03-29T00:33:27.934Z,57.98
2017-03-29T00:33:32.246Z,57.98
2017-03-29T00:33:36.590Z,57.98
2017-03-29T00:33:41.017Z,57.98
2017-03-29T00:33:45.322Z,58.26
2017-03-29T00:33:49.637Z,57.98
2017-03-29T00:33:54.066Z,57.89
2017-03-29T00:33:58.369Z,58.26
2017-03-29T00:34:02.684Z,58.26
2017-03-29T00:34:07.001Z,58.07
2017-03-29T00:34:11.310Z,57.89
2017-03-29T00:34:15.743Z,58.17
2017-03-29T00:34:20.056Z,58.26
2017-03-29T00:34:24.483Z,58.17
2017-03-29T00:34:28.796Z,58.26
2017-03-29T00:34:33.106Z,58.17
2017-03-29T00:34:37.529Z,58.17
2017-03-29T00:34:41.954Z,58.46
2017-03-29T00:34:46.384Z,58.17
2017-03-29T00:34:50.699Z,58.26
2017-03-29T00:34:55.011Z,58.26
2017-03-29T00:34:59.450Z,58.26
2017-03-29T00:35:03.766Z,58.36
2017-03-29T00:35:08.195Z,58.26
2017-03-29T00:35:12.619Z,58.17
2017-03-29T00:35:17.057Z,58.26
2017-03-29T00:35:21.520Z,58.26
2017-03-29T00:35:25.825Z,58.26
2017-03-29T00:35:30.131Z,58.26
2017-03-29T00:35:34.587Z,58.26
2017-03-29T00:35:39.013Z,58.17
2017-03-29T00:35:43.439Z,58.26
2017-03-29T00:35:47.745Z,58.26
2017-03-29T00:35:52.203Z,58.26
2017-03-29T00:35:56.631Z,58.26
2017-03-29T00:36:01.053Z,58.26
2017-03-29T00:36:05.586Z,58.17
2017-03-29T00:36:09.912Z,58.26
2017-03-29T00:36:14.338Z,58.46
2017-03-29T00:36:18.764Z,58.17
2017-03-29T00:36:23.187Z,58.26
2017-03-29T00:36:27.500Z,58.26
2017-03-29T00:36:31.805Z,58.36
2017-03-29T00:36:35.877Z,58.36
2017-03-29T00:36:40.298Z,58.26
2017-03-29T00:36:44.759Z,58.55
2017-03-29T00:36:49.079Z,58.07
2017-03-29T00:36:53.510Z,58.46
2017-03-29T00:36:57.821Z,58.36
2017-03-29T00:37:02.333Z,58.26
2017-03-29T00:37:06.643Z,58.46
2017-03-29T00:37:11.070Z,58.36
2017-03-29T00:37:15.501Z,58.46
2017-03-29T00:37:19.969Z,58.46
2017-03-29T00:37:24.390Z,58.36
2017-03-29T00:37:28.815Z,58.26
2017-03-29T00:37:33.256Z,58.55
2017-03-29T00:37:37.590Z,58.26
2017-03-29T00:37:42.017Z,58.36
2017-03-29T00:37:46.458Z,58.46
2017-03-29T00:37:50.889Z,58.46
2017-03-29T00:37:55.314Z,58.55
2017-03-29T00:37:59.746Z,58.36
2017-03-29T00:38:04.278Z,58.46
2017-03-29T00:38:08.706Z,58.55
2017-03-29T00:38:13.013Z,58.65
2017-03-29T00:38:17.440Z,58.65
2017-03-29T00:38:21.867Z,58.65
2017-03-29T00:38:26.294Z,58.65
2017-03-29T00:38:30.609Z,58.46
2017-03-29T00:38:34.916Z,58.65
2017-03-29T00:38:39.342Z,58.55
2017-03-29T00:38:43.765Z,58.55
2017-03-29T00:38:48.196Z,58.46
2017-03-29T00:38:52.654Z,58.65
2017-03-29T00:38:57.080Z,58.55
2017-03-29T00:39:01.506Z,58.55
2017-03-29T00:39:05.968Z,58.17
2017-03-29T00:39:10.389Z,58.65
2017-03-29T00:39:14.819Z,58.36
2017-03-29T00:39:19.272Z,58.36
2017-03-29T00:39:23.704Z,58.55
2017-03-29T00:39:28.126Z,58.36
2017-03-29T00:39:32.550Z,58.55
2017-03-29T00:39:36.980Z,58.17
2017-03-29T00:39:41.442Z,58.55
2017-03-29T00:39:45.866Z,58.46
2017-03-29T00:39:50.292Z,58.75
2017-03-29T00:39:54.721Z,58.36
2017-03-29T00:39:59.151Z,58.36
2017-03-29T00:40:03.579Z,58.17
2017-03-29T00:40:07.651Z,58.46
2017-03-29T00:40:12.075Z,58.17
2017-03-29T00:40:16.502Z,58.36
2017-03-29T00:40:20.928Z,58.46
2017-03-29T00:40:25.234Z,58.36
2017-03-29T00:40:29.544Z,58.26
2017-03-29T00:40:33.975Z,58.36
2017-03-29T00:40:38.402Z,58.46
2017-03-29T00:40:42.831Z,58.65
2017-03-29T00:40:47.135Z,58.46
2017-03-29T00:40:51.563Z,58.46
2017-03-29T00:40:55.997Z,58.26
2017-03-29T00:41:00.423Z,58.65
2017-03-29T00:41:04.849Z,58.46
2017-03-29T00:41:09.277Z,58.55
2017-03-29T00:41:13.588Z,58.36
2017-03-29T00:41:18.019Z,58.65
2017-03-29T00:41:22.336Z,58.65
2017-03-29T00:41:26.523Z,58.55
2017-03-29T00:41:30.834Z,58.36
2017-03-29T00:41:35.295Z,58.36
2017-03-29T00:41:39.724Z,58.46
2017-03-29T00:41:44.032Z,58.36
2017-03-29T00:41:48.462Z,58.36
2017-03-29T00:41:52.774Z,58.36
2017-03-29T00:41:57.198Z,58.55
2017-03-29T00:42:01.875Z,58.36
2017-03-29T00:42:06.312Z,58.55
2017-03-29T00:42:10.775Z,58.84
2017-03-29T00:42:15.200Z,58.65
2017-03-29T00:42:19.512Z,59.12
2017-03-29T00:42:23.819Z,58.65
2017-03-29T00:42:28.160Z,59.31
2017-03-29T00:42:32.587Z,58.55
2017-03-29T00:42:37.010Z,58.75
2017-03-29T00:42:41.442Z,58.55
2017-03-29T00:42:45.782Z,58.26
2017-03-29T00:42:50.217Z,58.55
2017-03-29T00:42:54.641Z,58.84
2017-03-29T00:42:59.067Z,58.26
2017-03-29T00:43:03.651Z,58.55
2017-03-29T00:43:07.956Z,58.75
2017-03-29T00:43:12.381Z,58.46
2017-03-29T00:43:16.802Z,58.84
2017-03-29T00:43:21.241Z,58.46
2017-03-29T00:43:25.549Z,58.55
2017-03-29T00:43:29.984Z,58.55
2017-03-29T00:43:34.176Z,58.75
2017-03-29T00:43:38.629Z,59.41
2017-03-29T00:43:42.932Z,58.75
2017-03-29T00:43:47.373Z,58.65
2017-03-29T00:43:51.802Z,59.41
2017-03-29T00:43:56.228Z,58.55
2017-03-29T00:44:00.538Z,58.84
2017-03-29T00:44:04.962Z,58.75
2017-03-29T00:44:09.148Z,58.94
2017-03-29T00:44:13.463Z,58.46
2017-03-29T00:44:17.889Z,58.84
2017-03-29T00:44:22.313Z,58.55
2017-03-29T00:44:26.624Z,58.75
2017-03-29T00:44:31.062Z,58.94
2017-03-29T00:44:35.492Z,58.84
2017-03-29T00:44:39.917Z,58.84
2017-03-29T00:44:44.107Z,58.75
2017-03-29T00:44:48.416Z,58.94
2017-03-29T00:44:52.863Z,58.94
2017-03-29T00:44:57.288Z,58.52
2017-03-29T00:45:01.716Z,58.94
2017-03-29T00:45:06.147Z,58.75
2017-03-29T00:45:10.592Z,58.55
2017-03-29T00:45:15.016Z,58.55
2017-03-29T00:45:19.324Z,58.65
2017-03-29T00:45:23.753Z,58.65
2017-03-29T00:45:28.189Z,58.84
2017-03-29T00:45:32.258Z,58.65
2017-03-29T00:45:36.680Z,58.65
2017-03-29T00:45:41.105Z,58.46
2017-03-29T00:45:45.534Z,58.65
2017-03-29T00:45:49.853Z,58.84
2017-03-29T00:45:54.275Z,58.84
2017-03-29T00:45:58.704Z,58.65
2017-03-29T00:46:03.137Z,58.75
2017-03-29T00:46:07.566Z,58.94
2017-03-29T00:46:11.997Z,58.94
2017-03-29T00:46:16.426Z,58.94
2017-03-29T00:46:20.853Z,58.55
2017-03-29T00:46:25.284Z,58.36
2017-03-29T00:46:29.594Z,58.75
2017-03-29T00:46:34.017Z,58.94
2017-03-29T00:46:38.440Z,58.84
2017-03-29T00:46:42.864Z,58.94
2017-03-29T00:46:47.290Z,58.84
2017-03-29T00:46:51.720Z,58.75
2017-03-29T00:46:56.147Z,58.75
2017-03-29T00:47:00.580Z,58.55
2017-03-29T00:47:04.802Z,58.65
2017-03-29T00:47:08.988Z,58.55
2017-03-29T00:47:13.414Z,58.65
2017-03-29T00:47:17.848Z,58.94
2017-03-29T00:47:22.269Z,58.94
2017-03-29T00:47:26.578Z,58.94
2017-03-29T00:47:31.006Z,59.03
2017-03-29T00:47:35.433Z,59.09
2017-03-29T00:47:39.856Z,59.22
2017-03-29T00:47:44.289Z,59.22
2017-03-29T00:47:48.604Z,58.94
2017-03-29T00:47:53.025Z,59.12
2017-03-29T00:47:57.454Z,59
2017-03-29T00:48:01.881Z,59.12
2017-03-29T00:48:06.312Z,58.84
2017-03-29T00:48:10.497Z,59.03
2017-03-29T00:48:14.918Z,58.84
2017-03-29T00:48:19.346Z,59.03
2017-03-29T00:48:23.772Z,59.03
2017-03-29T00:48:28.196Z,59.03
2017-03-29T00:48:32.498Z,59
2017-03-29T00:48:36.841Z,59.03
2017-03-29T00:48:41.263Z,59
2017-03-29T00:48:45.689Z,59.12
2017-03-29T00:48:50.147Z,59.03
2017-03-29T00:48:54.573Z,59.03
2017-03-29T00:48:59.003Z,59.03
2017-03-29T00:49:03.434Z,59.03
2017-03-29T00:49:07.624Z,59.03
2017-03-29T00:49:11.948Z,59.03
2017-03-29T00:49:16.437Z,59.03
2017-03-29T00:49:20.634Z,59.03
2017-03-29T00:49:25.064Z,59.03
2017-03-29T00:49:29.486Z,59.03
2017-03-29T00:49:33.914Z,59.03
2017-03-29T00:49:38.339Z,59.03
2017-03-29T00:49:42.775Z,59.03
2017-03-29T00:49:47.086Z,59.03
2017-03-29T00:49:51.511Z,59.03
2017-03-29T00:49:55.937Z,58.94
2017-03-29T00:50:00.373Z,59.03
2017-03-29T00:50:04.735Z,59.03
2017-03-29T00:50:09.043Z,59.03
2017-03-29T00:50:13.358Z,59.03
2017-03-29T00:50:17.787Z,59.03
2017-03-29T00:50:22.221Z,59.03
2017-03-29T00:50:26.645Z,58.84
2017-03-29T00:50:31.071Z,59.03
2017-03-29T00:50:35.388Z,59
2017-03-29T00:50:39.859Z,59.03
2017-03-29T00:50:44.170Z,59.03
2017-03-29T00:50:48.478Z,59.03
2017-03-29T00:50:52.920Z,59.22
2017-03-29T00:50:57.383Z,59.03
2017-03-29T00:51:01.812Z,59
2017-03-29T00:51:06.323Z,59.03
2017-03-29T00:51:10.757Z,59.03
2017-03-29T00:51:15.187Z,59.03
2017-03-29T00:51:19.609Z,59
2017-03-29T00:51:24.035Z,59
2017-03-29T00:51:28.346Z,59.03
2017-03-29T00:51:32.782Z,59.03
2017-03-29T00:51:37.208Z,58.84
2017-03-29T00:51:41.516Z,58.81
2017-03-29T00:51:45.953Z,59.22
2017-03-29T00:51:50.273Z,59.03
2017-03-29T00:51:54.704Z,58.91
2017-03-29T00:51:59.018Z,59.09
2017-03-29T00:52:03.598Z,58.72
2017-03-29T00:52:07.793Z,58.75
2017-03-29T00:52:12.217Z,58.75
2017-03-29T00:52:16.647Z,58.62
2017-03-29T00:52:21.106Z,58.91
2017-03-29T00:52:25.528Z,58.94
2017-03-29T00:52:29.956Z,59.09
2017-03-29T00:52:34.384Z,59.12
2017-03-29T00:52:38.815Z,59.12
2017-03-29T00:52:43.126Z,58.94
2017-03-29T00:52:47.550Z,58.91
2017-03-29T00:52:51.979Z,59.03
2017-03-29T00:52:56.412Z,59.22
2017-03-29T00:53:00.838Z,59
2017-03-29T00:53:05.263Z,59.03
2017-03-29T00:53:09.698Z,59.03
2017-03-29T00:53:14.125Z,59.22
2017-03-29T00:53:18.556Z,59
2017-03-29T00:53:22.993Z,59.03
2017-03-29T00:53:27.416Z,59.12
2017-03-29T00:53:31.723Z,59
2017-03-29T00:53:36.151Z,58.81
2017-03-29T00:53:40.464Z,59.12
2017-03-29T00:53:44.905Z,59.12
2017-03-29T00:53:49.096Z,59
2017-03-29T00:53:53.516Z,59
2017-03-29T00:53:57.945Z,59.03
2017-03-29T00:54:02.622Z,59
2017-03-29T00:54:07.048Z,59
2017-03-29T00:54:11.482Z,59.03
2017-03-29T00:54:15.792Z,59.12
2017-03-29T00:54:20.215Z,59.19
2017-03-29T00:54:24.642Z,59.12
2017-03-29T00:54:29.102Z,58.91
2017-03-29T00:54:33.530Z,59.12
2017-03-29T00:54:37.842Z,59.12
2017-03-29T00:54:42.269Z,59.12
2017-03-29T00:54:46.584Z,59.09
2017-03-29T00:54:50.890Z,58.91
2017-03-29T00:54:55.319Z,58.65
2017-03-29T00:54:59.749Z,58.55
2017-03-29T00:55:04.180Z,58.81
2017-03-29T00:55:08.605Z,59.03
2017-03-29T00:55:13.032Z,59.19
2017-03-29T00:55:17.466Z,58.75
2017-03-29T00:55:21.770Z,59.19
2017-03-29T00:55:25.964Z,59.38
2017-03-29T00:55:30.398Z,59.7
2017-03-29T00:55:34.821Z,59.57
2017-03-29T00:55:39.249Z,59.79
2017-03-29T00:55:43.677Z,59.31
2017-03-29T00:55:48.104Z,59.79
2017-03-29T00:55:52.533Z,59.09
2017-03-29T00:55:56.959Z,59.79
2017-03-29T00:56:01.384Z,59.7
2017-03-29T00:56:05.694Z,59.03
2017-03-29T00:56:10.013Z,59
2017-03-29T00:56:14.324Z,59.31
2017-03-29T00:56:18.747Z,59.28
2017-03-29T00:56:23.055Z,59.19
2017-03-29T00:56:27.487Z,58.75
2017-03-29T00:56:31.913Z,59.7
2017-03-29T00:56:36.338Z,59.57
2017-03-29T00:56:40.775Z,59.48